createdAt,value
2023-03-26T00:00:56.911Z,78.48
2023-03-26T00:11:13.841Z,77.89
2023-03-26T00:21:20.937Z,76.92
2023-03-26T00:31:23.847Z,75.71
2023-03-26T00:41:27.227Z,75.56
2023-03-26T00:51:30.327Z,75.57
2023-03-26T01:01:32.729Z,74.62
2023-03-26T01:11:36.162Z,74.05
2023-03-26T01:21:39.916Z,73.24
2023-03-26T01:32:15.689Z,73.08
2023-03-26T01:42:28.086Z,72.01
2023-03-26T01:52:31.844Z,72.03
2023-03-26T02:02:42.851Z,72.81
2023-03-26T02:12:45.650Z,70.67
2023-03-26T02:22:48.638Z,70.94
2023-03-26T02:32:52.480Z,71.38
2023-03-26T02:42:55.517Z,70.57
2023-03-26T02:52:57.865Z,70.15
2023-03-26T06:40:36.364Z,73.17
2023-03-26T06:50:38.696Z,71.25
2023-03-26T07:00:42.476Z,69.96
2023-03-26T07:10:45.162Z,67.83
2023-03-26T07:20:47.831Z,65.16
2023-03-26T07:31:11.928Z,65.83
2023-03-26T07:41:32.602Z,64.90
2023-03-26T07:51:35.494Z,60.17
2023-03-26T08:02:15.777Z,56.33
2023-03-26T08:12:24.934Z,59.41
2023-03-26T08:22:31.461Z,58.60
2023-03-26T08:32:34.187Z,62.24
2023-03-26T08:43:01.253Z,59.34
2023-03-26T08:53:22.069Z,55.65
2023-03-26T09:03:54.142Z,57.03
2023-03-26T09:14:05.179Z,59.17
2023-03-26T09:24:28.667Z,56.07
2023-03-26T09:35:12.623Z,57.42
2023-03-26T09:45:27.392Z,57.09
2023-03-26T09:55:45.521Z,58.33
2023-03-26T10:06:11.920Z,58.63
2023-03-26T10:16:24.059Z,59.65
2023-03-26T10:27:09.074Z,61.90
2023-03-26T10:37:19.973Z,61.69
2023-03-26T10:47:55.967Z,62.18
2023-03-26T10:58:26.210Z,61.94
2023-03-26T11:08:56.349Z,57.41
2023-03-26T11:19:17.622Z,51.91
2023-03-26T11:29:39.212Z,53.57
2023-03-26T11:39:50.087Z,54.39
2023-03-26T11:49:55.499Z,51.43
2023-03-26T12:00:17.182Z,51.86
2023-03-26T12:10:27.690Z,51.61
2023-03-26T12:20:30.327Z,52.91
2023-03-26T12:30:38.123Z,52.63
2023-03-26T12:40:42.827Z,52.44
2023-03-26T12:50:57.787Z,52.74
2023-03-26T13:01:20.707Z,51.55
2023-03-26T13:11:39.607Z,50.21
2023-03-26T13:21:48.205Z,48.32
2023-03-26T13:32:23.947Z,50.17
2023-03-26T13:42:45.327Z,51.29
2023-03-26T13:52:55.519Z,51.25
2023-03-26T14:03:04.441Z,57.23
2023-03-26T14:13:34.214Z,58.82
2023-03-26T14:24:07.544Z,60.99
2023-03-26T14:34:31.074Z,60.42
2023-03-26T14:45:01.603Z,60.24
2023-03-26T14:55:13.865Z,60.19
2023-03-26T15:05:16.279Z,60.97
2023-03-26T15:15:30.712Z,58.51
2023-03-26T15:26:08.000Z,57.81
2023-03-26T15:36:44.966Z,57.09
2023-03-26T15:47:24.961Z,57.58
2023-03-26T15:57:30.842Z,58.10
2023-03-26T16:07:53.074Z,58.37
2023-03-26T16:18:10.605Z,59.22
2023-03-26T16:28:27.974Z,60.91
2023-03-26T16:39:11.044Z,61.54
2023-03-26T16:49:38.111Z,65.01
2023-03-26T16:59:43.278Z,65.00
2023-03-26T17:09:52.170Z,67.70
2023-03-26T17:20:11.859Z,70.23
2023-03-26T17:30:51.286Z,71.56
2023-03-26T17:40:55.476Z,71.81
2023-03-26T17:51:03.472Z,72.53
2023-03-26T18:01:30.100Z,72.96
2023-03-26T18:11:32.450Z,73.34
2023-03-26T18:21:37.508Z,74.28
2023-03-26T18:31:43.080Z,74.05
2023-03-26T18:41:46.087Z,74.65
2023-03-26T18:51:56.774Z,74.91
2023-03-26T19:02:04.555Z,75.90
2023-03-26T19:12:18.526Z,75.68
2023-03-26T19:22:22.775Z,75.80
2023-03-26T19:32:32.645Z,75.27
2023-03-26T19:42:43.041Z,75.12
2023-03-26T19:52:46.894Z,75.96
2023-03-26T20:02:49.941Z,76.03
2023-03-26T20:12:52.990Z,76.11
2023-03-26T20:22:55.606Z,76.79
2023-03-26T20:40:14.434Z,76.12
2023-03-26T20:50:18.991Z,77.69
2023-03-26T21:10:13.848Z,76.81
2023-03-26T21:20:17.306Z,76.60
2023-03-26T21:30:20.010Z,78.25
2023-03-26T21:40:22.581Z,77.51
2023-03-26T21:50:25.244Z,77.31
2023-03-26T22:00:42.813Z,76.97
2023-03-26T22:10:46.185Z,76.78
2023-03-26T22:20:49.430Z,77.59
2023-03-26T22:30:52.496Z,77.82
2023-03-26T22:40:57.259Z,77.02
2023-03-26T22:51:06.554Z,77.14
2023-03-26T23:01:17.011Z,77.02
2023-03-26T23:11:22.181Z,76.19
2023-03-26T23:21:24.915Z,76.67
2023-03-26T23:31:27.607Z,76.27
2023-03-26T23:41:29.969Z,76.54
2023-03-26T23:51:32.758Z,76.19
